• Join FlightAware (Why Join?)
  • Login
  • US Flag 
07:18PM EDT


 

Airport Tracker/Info


-or-


 

Live Flight TrackerFlight Track Log ✈ LJY630 ✈ 30-Dec-2013 ✈ KPIT - KAPF

Flight Track Log - Related Links

Times and Time Zones

All times are in EST time to prevent confusion due to time zone crossing. See the LJY630 flight status page for this flight to view local times or setup timezone preferences in your user account.

Time Position Orientation Groundspeed Altitude Reporting Facility
EST Latitude Longitude Course Direction KTS MPH feet Rate Location/Type
10:05AM 40.4383 -80.3256 195° South 235 270 6,300  Level Cleveland Center
10:06AM 40.3683 -80.3250 180° South 252 290 9,800 3,180 Climbing Cleveland Center
10:07AM 40.2986 -80.3233 179° South 275 316 12,900 3,300 Climbing Cleveland Center
10:08AM 40.2022 -80.3161 177° South 291 335 16,600 2,940 Climbing Cleveland Center
10:09AM 39.8698 -80.2439 187° South  Level FlightAware Approximate
10:09AM 40.1197 -80.3131 178° South 296 341 19,000  Level Cleveland Center
10:10AM 40.0344 -80.3075 177° South 307 353 21,700 2,460 Climbing Cleveland Center
10:11AM 39.9494 -80.3039 178° South 306 352 24,100 2,040 Climbing Cleveland Center
10:12AM 39.8619 -80.2997 178° South 312 359 26,000 900 Climbing Cleveland Center
10:13AM 39.7653 -80.2953 178° South 346 398 26,000  Level Cleveland Center
10:14AM 39.6617 -80.2892 177° South 371 427 26,000  Level Cleveland Center
10:15AM 39.5367 -80.2825 178° South 375 432 26,000 180 Level Cleveland Center
10:16AM 39.4342 -80.2767 177° South 369 425 26,400 900 Climbing Cleveland Center
10:17AM 39.3353 -80.2711 178° South 359 413 27,900 1,500 Climbing Cleveland Center
10:18AM 39.2406 -80.2681 179° South 345 397 29,600 1,560 Climbing Cleveland Center
10:19AM 39.1586 -80.2906 192° South 306 352 31,100 1,560 Climbing Cleveland Center
10:20AM 39.0781 -80.3108 191° South 297 342 32,900 1,740 Climbing Cleveland Center
10:21AM 38.9864 -80.3375 193° South 287 330 34,900 1,560 Climbing Washington Center
10:22AM 38.9150 -80.3542 190° South 274 315 36,300 1,260 Climbing Washington Center
10:23AM 38.8456 -80.3708 191° South 268 308 37,500 900 Climbing Washington Center
10:24AM 38.7736 -80.3928 193° South 262 302 38,200 600 Climbing Washington Center
10:25AM 38.6975 -80.4197 195° South 267 307 38,800 540 Climbing Washington Center
10:26AM 38.6239 -80.4389 191° South 273 314 39,300 480 Climbing Washington Center
10:27AM 38.5439 -80.4575 190° South 285 328 39,800 420 Climbing Washington Center
10:28AM 38.5111 -80.4561 178° South 289 333 40,000 120 Climbing Indianapolis Center
10:29AM 38.4275 -80.4783 192° South 301 346 40,000  Level Indianapolis Center
10:30AM 38.3394 -80.5000 191° South 316 364 40,000  Level Indianapolis Center
10:31AM 38.2494 -80.5222 191° South 325 374 40,000  Level Indianapolis Center
10:32AM 38.1583 -80.5453 191° South 330 380 40,000  Level Indianapolis Center
10:33AM 38.0500 -80.5719 191° South 329 379 40,000  Level Indianapolis Center
10:34AM 37.9583 -80.5942 191° South 332 382 40,000  Level Indianapolis Center
10:35AM 37.8667 -80.6175 191° South 334 384 40,000  Level Indianapolis Center
10:36AM 37.7861 -80.6369 191° South 333 383 40,000  Level Indianapolis Center
10:37AM 37.6792 -80.6639 191° South 334 384 40,000  Level Indianapolis Center
10:38AM 37.5883 -80.6864 191° South 340 391 40,000  Level Indianapolis Center
10:39AM 37.4983 -80.7078 191° South 340 391 40,000  Level Indianapolis Center
10:40AM 37.4069 -80.7303 191° South 340 391 40,000  Level Indianapolis Center
10:41AM 37.2967 -80.7572 191° South 343 395 40,000  Level Indianapolis Center
10:42AM 37.2058 -80.7786 191° South 342 394 40,000  Level Indianapolis Center
10:43AM 37.1089 -80.7906 186° South 355 409 40,000  Level Indianapolis Center
10:44AM 36.9917 -80.8061 186° South 361 415 40,000  Level Indianapolis Center
10:45AM 36.8942 -80.8161 185° South 360 414 40,000  Level Indianapolis Center
10:46AM 36.7956 -80.8264 185° South 363 418 40,000  Level Indianapolis Center
10:47AM 36.6714 -80.8397 185° South 360 414 40,000  Level Atlanta Center
10:48AM 36.5736 -80.8514 185° South 360 414 40,000  Level Atlanta Center
10:49AM 36.4719 -80.8633 185° South 365 420 40,000  Level Atlanta Center
10:50AM 36.3700 -80.8750 185° South 365 420 40,000  Level Atlanta Center
10:51AM 36.2703 -80.8867 185° South 365 420 40,000  Level Atlanta Center
10:52AM 36.1683 -80.8983 185° South 365 420 40,000  Level Atlanta Center
10:53AM 36.0706 -80.9097 185° South 365 420 40,000  Level Atlanta Center
10:54AM 35.9686 -80.9214 185° South 365 420 40,000  Level Atlanta Center
10:55AM 35.8667 -80.9331 185° South 365 420 40,000  Level Atlanta Center
10:56AM 35.7625 -80.9422 184° South 370 426 40,000  Level Atlanta Center
10:57AM 35.6608 -80.9536 185° South 370 426 40,000  Level Atlanta Center
10:58AM 35.5567 -80.9653 185° South 370 426 40,000  Level Atlanta Center
10:59AM 35.4736 -80.9761 186° South 370 426 40,000  Level Atlanta Center
11:00AM 35.3467 -80.9908 185° South 370 426 40,000  Level Atlanta Center
11:01AM 35.2550 -81.0044 187° South 370 426 40,000  Level Atlanta Center
11:02AM 35.1508 -81.0108 183° South 370 426 40,000  Level Atlanta Center
11:06AM 34.7786 -81.0575 186° South 392 451 40,000  Level Jacksonville Center
11:07AM 34.6764 -81.0672 184° South 387 445 40,000  Level Jacksonville Center
11:08AM 34.5703 -81.0822 187° South 387 445 40,000  Level Jacksonville Center
11:09AM 34.4661 -81.0919 184° South 387 445 40,000  Level Jacksonville Center
11:10AM 34.3642 -81.0992 183° South 387 445 40,000  Level Jacksonville Center
11:11AM 34.2600 -81.1111 185° South 381 438 40,000  Level Jacksonville Center
11:12AM 34.1536 -81.1208 184° South 381 438 40,000  Level Jacksonville Center
11:13AM 34.0539 -81.1431 190° South 381 438 40,000  Level Jacksonville Center
11:14AM 33.9583 -81.1800 198° South 370 426 40,000  Level Jacksonville Center
11:15AM 33.8628 -81.2194 199° South 370 426 40,000  Level Jacksonville Center
11:16AM 33.7675 -81.2586 199° South 365 420 40,000  Level Jacksonville Center
11:17AM 33.6719 -81.3003 200° South 370 426 40,000  Level Jacksonville Center
11:18AM 33.5744 -81.3394 199° South 370 426 40,000  Level Jacksonville Center
11:19AM 33.4789 -81.3736 197° South 365 420 40,000  Level Jacksonville Center
11:20AM 33.3811 -81.4125 198° South 365 420 40,000  Level Jacksonville Center
11:21AM 33.2814 -81.4514 198° South 365 420 40,000  Level Jacksonville Center
11:22AM 33.1858 -81.4953 201° Southwest 365 420 40,000  Level Jacksonville Center
11:23AM 33.0903 -81.5339 199° South 370 426 40,000  Level Jacksonville Center
11:24AM 32.9925 -81.5725 198° South 370 426 40,000  Level Jacksonville Center
11:25AM 32.8928 -81.6111 198° South 370 426 40,000  Level Jacksonville Center
11:26AM 32.7972 -81.6494 199° South 370 426 40,000  Level Jacksonville Center
11:27AM 32.6994 -81.6878 198° South 370 426 40,000  Level Jacksonville Center
11:28AM 32.6119 -81.7211 198° South 370 426 40,000  Level Jacksonville Center
11:29AM 32.5061 -81.7644 199° South 370 426 40,000  Level Jacksonville Center
11:30AM 32.4081 -81.8025 198° South 370 426 40,000  Level Jacksonville Center
11:31AM 32.3208 -81.8378 199° South 370 426 40,000  Level Jacksonville Center
11:32AM 32.2106 -81.8808 198° South 370 426 40,000  Level Jacksonville Center
11:33AM 32.1231 -81.9139 198° South 370 426 40,000  Level Jacksonville Center
11:34AM 32.0128 -81.9542 197° South 375 432 40,000  Level Jacksonville Center
11:35AM 31.9086 -81.9747 190° South 380 437 40,000  Level Jacksonville Center
11:36AM 31.8083 -81.9831 184° South 392 451 40,000  Level Jacksonville Center
11:37AM 31.6894 -81.9967 186° South 392 451 40,000  Level Jacksonville Center
11:38AM 31.5914 -82.0047 184° South 392 451 40,000  Level Jacksonville Center
11:39AM 31.4828 -82.0156 185° South 402 463 40,000  Level Jacksonville Center
11:40AM 31.3722 -82.0264 185° South 402 463 40,000  Level Jacksonville Center
11:41AM 31.2617 -82.0369 185° South 402 463 40,000  Level Jacksonville Center
11:42AM 31.1489 -82.0478 185° South 402 463 40,000  Level Jacksonville Center
11:43AM 31.0383 -82.0586 185° South 407 468 40,000  Level Jacksonville Center
11:44AM 30.9258 -82.0667 184° South 407 468 40,000  Level Jacksonville Center
11:45AM 30.8172 -82.0775 185° South 402 463 40,000  Level Jacksonville Center
11:46AM 30.7044 -82.0881 185° South 402 463 40,000  Level Jacksonville Center
11:47AM 30.5939 -82.0986 185° South 402 463 40,000  Level Jacksonville Center
11:48AM 30.4792 -82.1019 181° South 407 468 40,000  Level Jacksonville Center
11:49AM 30.3664 -82.1150 186° South 407 468 40,000  Level Jacksonville Center
11:50AM 30.2497 -82.1256 184° South 407 468 40,000  Level Jacksonville Center
11:51AM 30.1347 -82.1192 177° South 407 468 40,000  Level Jacksonville Center
11:52AM 30.0136 -82.1033 174° South 420 483 40,000  Level Jacksonville Center
11:53AM 29.8964 -82.0781 169° South 430 495 40,000  Level Jacksonville Center
11:54AM 29.7647 -82.0528 171° South 436 502 40,000 -300 Level Jacksonville Center
11:55AM 29.6436 -82.0275 170° South 436 502 39,500 -1,320 Descending Jacksonville Center
11:56AM 29.5264 -82.0047 170° South 441 507 37,400 -2,100 Descending Jacksonville Center
11:57AM 29.4114 -81.9819 170° South 436 502 35,300 -1,200 Descending Jacksonville Center
11:58AM 29.2986 -81.9614 171° South 424 488 35,000 -180 Descending Jacksonville Center
11:59AM 29.1983 -81.9364 168° South 419 482 35,000 -660 Level Jacksonville Center
12:01PM 28.9653 -81.8922 171° South 426 490 33,100 -1,260 Descending Miami Center
12:02PM 28.8453 -81.8678 170° South 432 497 31,400 -1,800 Descending Miami Center
12:03PM 28.7253 -81.8433 170° South 437 503 29,500 -1,920 Descending Miami Center
12:04PM 28.6008 -81.8189 170° South 447 514 27,600 -1,320 Descending Miami Center
12:05PM 28.4811 -81.7875 167° South 447 514 26,900 -480 Descending Miami Center
12:06PM 28.3653 -81.7542 166° South 442 509 26,700 -600 Descending Miami Center
12:07PM 28.2536 -81.7233 166° South 448 516 25,700 -1,020 Descending Miami Center
12:08PM 28.1358 -81.6900 166° South 448 516 24,700 -1,020 Descending Miami Center
12:09PM 28.0153 -81.6803 176° South 448 516 23,700 -1,020 Descending Miami Center
12:10PM 27.9036 -81.7108 194° South 433 498 22,700 -1,020 Descending Miami Center
12:11PM 27.7961 -81.7414 194° South 409 471 21,700 -1,200 Descending Miami Center
12:12PM 27.6744 -81.7642 189° South 404 465 20,300 -1,500 Descending Miami Center
12:13PM 27.5622 -81.7478 173° South 404 465 18,800 -1,320 Descending Miami Center
12:14PM 27.4675 -81.7064 159° South 412 474 17,700 -1,320 Descending Miami Center
12:15PM 27.3650 -81.6553 156° South 407 468 16,200 -1,500 Descending Miami Center
12:16PM 27.2642 -81.6067 157° South 401 461 14,700 -1,560 Descending Miami Center
12:17PM 27.1636 -81.5606 158° South 401 461 13,100 -1,680 Descending Miami Center
12:18PM 27.0689 -81.5169 158° South 390 449 11,400 -1,080 Descending Miami Center
12:19PM 26.9808 -81.4669 153° Southeast 372 428 11,000 -420 Descending Miami Center
12:20PM 26.8922 -81.4239 157° South 360 414 10,600 -720 Descending Miami Center
12:21PM 26.8100 -81.3833 156° South 313 360 9,600 -1,020 Descending Miami Center
12:22PM 26.7347 -81.3922 186° South 262 302 8,600 -840 Descending Miami Center
12:23PM 26.6594 -81.3961 183° South 272 313 8,000 -300 Descending Miami Center
12:24PM 26.5842 -81.3978 181° South 272 313 8,000  Level Miami Center
12:25PM 26.5086 -81.4067 186° South 272 313 8,000  Level Miami Center
12:26PM 26.4125 -81.4303 192° South  Level FlightAware Approximate
12:33PM 26.1500 -81.7667 246° West  Level FlightAware Approximate
12:34PM 26.1524 -81.7756 246° West  Level Estimated
12:35PM 26.1524 -81.7756 246° West  Level Estimated
12:36PM 26.1524 -81.7756 246° West  Level Estimated
12:37PM 26.1524 -81.7756 246° West  Level Estimated
12:38PM 26.1524 -81.7756 246° West  Level Estimated
12:39PM 26.1524 -81.7756 246° West  Level Estimated
12:40PM 26.1524 -81.7756 246° West  Level Estimated
12:41PM 26.1524 -81.7756 246° West  Level Estimated
12:42PM 26.1524 -81.7756 246° West  Level Estimated
12:43PM 26.1524 -81.7756 246° West  Level Estimated